West Branch Of The Westfield River @ Huntington, Ma

W. B. Westfield River at Huntington
 Total Drainage Area: 94 sq. miles 
 Drainage Area Controlled by Corps Dams: 0 sq. miles (0%) 
 Warning Flow/Stage: 2,810 cfs / 7.5 feet 
 Flood Flow/Stage: 5,900 cfs / 9.0 feet 
Date Time
(Eastern)
Stage
(ft)
Flow
(cfs)
CSM
(cfs / sq. mi.)
Jan-31 01:30 pm 4.54 340 3.6
Jan-31 12:30 pm 4.55 344 3.7
Jan-31 11:30 am 4.55 344 3.7
Jan-31 10:30 am 4.57 352 3.8
Jan-31 09:30 am 4.57 352 3.8
Jan-31 08:30 am 4.56 348 3.7
Jan-31 07:30 am 4.59 361 3.8
Jan-31 06:30 am 4.58 357 3.8
Jan-31 05:30 am 4.58 357 3.8
Jan-31 04:30 am 4.59 361 3.8
Jan-31 03:30 am 4.59 361 3.8
Jan-31 02:30 am 4.58 357 3.8
Jan-31 01:30 am 4.59 361 3.8
Jan-31 12:30 am 4.59 361 3.8
Jan-30 11:30 pm 4.59 361 3.8
Jan-30 10:30 pm 4.57 352 3.8
Jan-30 09:30 pm 4.58 357 3.8
Jan-30 08:30 pm 4.58 357 3.8
Jan-30 07:30 pm 4.57 352 3.8
Jan-30 06:30 pm 4.56 348 3.7
Jan-30 05:30 pm 4.56 348 3.7
Jan-30 04:30 pm 4.55 344 3.7
Jan-30 03:30 pm 4.55 344 3.7
Jan-30 02:30 pm 4.56 348 3.7
Jan-30 01:30 pm 4.57 352 3.8
Report Generated January 31, 2023 02:20 pm